Strona główna
METAR-TAF:

METAR-TAF

Lotnisko :

Chōfu, Japonia

Szerokość geograficzna: 35-40N, Długość geograficzna: 139-32E, wysokość: 41 m

Aktualna obserwacja pogody

Raport powstał 6 godziny i 31 minut temu, godzina 07:00 UTC
Wiatr 6 kt od południowo-południowy zachód, zmienny między południe i zachodnio-południowy zachód
Temperatura 13°C
Wilgotność 38%
Ciśnienie 1011 hPa
Widzialność 10 km lub więcej
Mało chmury na wysokości 3000 ft

METAR: RJTF 190700Z 20006KT 170V240 9999 FEW030 13/M01 Q1011

czas: 22:31 (13:31 UTC)


TAF: brakujący

Obserwacja i prognoza pogody dla ponad 4000 lotnisk (raport METAR i TAF).

Dostępne stacje oznaczono żółtymi i czerwonymi punktami na mapie.

Najedź kursorem aby zobaczyć nazwę stacji.

Kliknij aby zobaczyć obserwacje i prognozy pogody.

Aby zmienić mapę: kliknij na zielony przycisk z czarnym krzyżykiem, aby powiększyć; na zielony przycisk z myślnikiem, aby pomniejszyć; na zielone strzałki, aby przejść do map sąsiednich.


METAR-TAF: